Terminal Aerodrome Forecast
Issued by NWS Sterling, VA

Current Version | Previous Version | Text Only | Print | Product List | Glossary Off
Versions: 1 2 3 4 5 6 7 8 9 10 11 12 13 14 15 16 17 18 19 20 21

000
FTUS41 KLWX 241700
TAFMRB
TAF
KMRB 241737Z 2418/2518 15006KT P6SM -RA OVC008
     FM242000 16007KT 5SM BR OVC008
     FM250000 17013KT P6SM OVC003 WS020/21045KT
     FM250200 19013KT 6SM -SHRA VCTS OVC003CB WS020/21040KT
     FM250400 22013KT P6SM -SHRA VCTS OVC050CB
     FM250600 27013KT P6SM OVC090
     FM251400 27013G21KT P6SM SCT140
     FM251500 27015G28KT P6SM SCT030=

USA.gov is the U.S. government's official web portal to all federal, state and local government web resources and services.